Time;durP1;ratioP1;P1;durP2;ratioP2;P2;SDS_P1;SDS_P2;PMS_P1;PMS_P2;Temp;Humidity;BMP_temperature;BMP_pressure;BME280_temperature;BME280_humidity;BME280_pressure;Samples;Min_cycle;Max_cycle;Signal;HPM_P1;HPM_P2
2023/10/26 00:01:33;;;;;;;0.45;0.40;;;;;;;;;;5038811;28;20304;-59
2023/10/26 00:04:00;;;;;;;0.40;0.40;;;;;;;;;;5039095;28;20498;-59
2023/10/26 00:06:28;;;;;;;0.40;0.40;;;;;;;;;;5039451;28;20206;-59
2023/10/26 00:08:55;;;;;;;0.50;0.50;;;;;;;;;;5039031;28;20232;-59
2023/10/26 00:11:22;;;;;;;0.47;0.47;;;;;;;;;;5038670;28;20594;-59
2023/10/26 00:13:50;;;;;;;0.63;0.43;;;;;;;;;;5038461;28;20205;-59
2023/10/26 00:16:17;;;;;;;0.73;0.40;;;;;;;;;;5038758;28;20470;-59
2023/10/26 00:18:46;;;;;;;0.52;0.50;;;;;;;;;;5038694;28;20197;-59
2023/10/26 00:21:13;;;;;;;0.75;0.70;;;;;;;;;;5038772;28;20212;-59
2023/10/26 00:23:41;;;;;;;0.38;0.38;;;;;;;;;;5038635;28;20233;-59
2023/10/26 00:26:08;;;;;;;0.40;0.40;;;;;;;;;;5038620;28;20206;-59
2023/10/26 00:28:36;;;;;;;0.68;0.40;;;;;;;;;;5038702;28;20240;-59
2023/10/26 00:31:03;;;;;;;0.82;0.40;;;;;;;;;;5038642;28;20205;-59
2023/10/26 00:33:31;;;;;;;0.68;0.30;;;;;;;;;;5038404;28;20582;-59
2023/10/26 00:35:59;;;;;;;0.60;0.50;;;;;;;;;;5038314;28;20198;-60
2023/10/26 00:38:27;;;;;;;0.55;0.50;;;;;;;;;;5038271;28;20459;-60
2023/10/26 00:40:54;;;;;;;0.43;0.30;;;;;;;;;;5038343;28;20216;-59
2023/10/26 00:43:22;;;;;;;0.95;0.40;;;;;;;;;;5038209;28;20229;-59
2023/10/26 00:45:51;;;;;;;0.40;0.40;;;;;;;;;;5038001;28;20209;-59
2023/10/26 00:48:19;;;;;;;0.30;0.30;;;;;;;;;;5038413;28;20271;-59
2023/10/26 00:50:46;;;;;;;0.40;0.30;;;;;;;;;;5037546;28;20287;-59
2023/10/26 00:53:16;;;;;;;0.40;0.40;;;;;;;;;;5038033;28;20451;-59
2023/10/26 00:55:45;;;;;;;0.57;0.50;;;;;;;;;;5038456;28;20205;-59
2023/10/26 00:58:13;;;;;;;0.60;0.35;;;;;;;;;;5038191;28;20596;-59
2023/10/26 01:00:40;;;;;;;0.22;0.22;;;;;;;;;;5038136;28;20206;-59
2023/10/26 01:03:08;;;;;;;0.30;0.30;;;;;;;;;;5037771;28;20240;-59
2023/10/26 01:05:35;;;;;;;0.30;0.30;;;;;;;;;;5037379;28;20212;-59
2023/10/26 01:08:03;;;;;;;0.30;0.30;;;;;;;;;;5038292;28;20616;-59
2023/10/26 01:10:32;;;;;;;0.45;0.40;;;;;;;;;;5037961;28;20217;-59
2023/10/26 01:13:00;;;;;;;0.40;0.40;;;;;;;;;;5037741;28;20206;-59
2023/10/26 01:15:27;;;;;;;0.30;0.30;;;;;;;;;;5037531;28;20205;-59
2023/10/26 01:17:54;;;;;;;0.65;0.38;;;;;;;;;;5037974;28;20212;-59
2023/10/26 01:20:22;;;;;;;0.30;0.30;;;;;;;;;;5037494;28;20213;-59
2023/10/26 01:22:50;;;;;;;0.40;0.40;;;;;;;;;;5037752;28;20206;-59
2023/10/26 01:25:18;;;;;;;0.35;0.30;;;;;;;;;;5037951;28;20201;-59
2023/10/26 01:27:45;;;;;;;0.30;0.30;;;;;;;;;;5037567;28;20206;-59
2023/10/26 01:30:13;;;;;;;0.30;0.30;;;;;;;;;;5037470;28;20316;-59
2023/10/26 01:32:40;;;;;;;0.68;0.50;;;;;;;;;;5037601;28;20580;-59
2023/10/26 01:35:08;;;;;;;0.35;0.30;;;;;;;;;;5037473;28;20212;-59
2023/10/26 01:37:35;;;;;;;0.60;0.30;;;;;;;;;;5037300;28;20206;-59
2023/10/26 01:40:04;;;;;;;0.20;0.20;;;;;;;;;;5037698;28;20205;-59
2023/10/26 01:42:32;;;;;;;0.32;0.32;;;;;;;;;;5037449;28;20312;-59
2023/10/26 01:44:59;;;;;;;0.40;0.40;;;;;;;;;;5036637;28;20239;-59
2023/10/26 01:47:26;;;;;;;0.50;0.50;;;;;;;;;;5037440;28;20212;-59
2023/10/26 01:49:54;;;;;;;0.30;0.30;;;;;;;;;;5036979;28;20237;-59
2023/10/26 01:52:21;;;;;;;0.50;0.35;;;;;;;;;;5037371;28;20216;-59
2023/10/26 01:54:49;;;;;;;0.28;0.28;;;;;;;;;;5037391;28;20277;-59
2023/10/26 01:57:18;;;;;;;0.30;0.30;;;;;;;;;;5037089;28;20206;-59
2023/10/26 01:59:45;;;;;;;0.40;0.30;;;;;;;;;;5037470;28;20267;-59
2023/10/26 02:02:13;;;;;;;0.20;0.20;;;;;;;;;;5037192;28;20201;-59
2023/10/26 02:04:40;;;;;;;0.35;0.30;;;;;;;;;;5037359;28;20240;-59
2023/10/26 02:07:08;;;;;;;0.20;0.20;;;;;;;;;;5037339;28;20228;-59
2023/10/26 02:09:35;;;;;;;0.30;0.30;;;;;;;;;;5037259;28;20623;-59
2023/10/26 02:12:02;;;;;;;0.52;0.40;;;;;;;;;;5037203;28;20656;-59
2023/10/26 02:14:31;;;;;;;0.40;0.40;;;;;;;;;;5037071;28;20202;-60
2023/10/26 02:16:58;;;;;;;0.43;0.40;;;;;;;;;;5037116;28;20206;-59
2023/10/26 02:19:26;;;;;;;0.40;0.30;;;;;;;;;;5037352;28;20229;-59
2023/10/26 02:21:53;;;;;;;0.30;0.30;;;;;;;;;;5037058;28;20205;-59
2023/10/26 02:24:21;;;;;;;0.40;0.40;;;;;;;;;;5036332;28;20233;-59
2023/10/26 02:26:48;;;;;;;0.30;0.30;;;;;;;;;;5036847;28;20216;-59
2023/10/26 02:29:15;;;;;;;0.40;0.40;;;;;;;;;;5036886;28;20299;-59
2023/10/26 02:31:44;;;;;;;0.75;0.50;;;;;;;;;;5036326;28;20220;-59
2023/10/26 02:34:12;;;;;;;0.63;0.45;;;;;;;;;;5037280;28;20202;-59
2023/10/26 02:36:39;;;;;;;0.30;0.30;;;;;;;;;;5037084;28;20206;-59
2023/10/26 02:39:07;;;;;;;0.47;0.40;;;;;;;;;;5036806;28;20216;-59
2023/10/26 02:41:34;;;;;;;0.20;0.20;;;;;;;;;;5036585;28;20209;-59
2023/10/26 02:44:01;;;;;;;1.10;0.30;;;;;;;;;;5036869;28;20236;-59
2023/10/26 02:46:29;;;;;;;0.30;0.30;;;;;;;;;;5036514;28;20205;-59
2023/10/26 02:48:58;;;;;;;0.30;0.30;;;;;;;;;;5036492;28;20210;-59
2023/10/26 02:51:26;;;;;;;0.40;0.40;;;;;;;;;;5036457;28;20229;-59
2023/10/26 02:53:53;;;;;;;0.30;0.30;;;;;;;;;;5036600;28;20495;-59
2023/10/26 02:56:20;;;;;;;0.30;0.30;;;;;;;;;;5039431;28;20300;-59
2023/10/26 02:58:48;;;;;;;0.30;0.30;;;;;;;;;;5039921;28;20205;-59
2023/10/26 03:01:15;;;;;;;0.30;0.30;;;;;;;;;;5040223;28;20312;-59
2023/10/26 03:03:42;;;;;;;0.50;0.40;;;;;;;;;;5039948;28;20214;-59
2023/10/26 03:06:11;;;;;;;0.30;0.30;;;;;;;;;;5040119;28;20205;-59
2023/10/26 03:08:38;;;;;;;0.47;0.40;;;;;;;;;;5039976;28;20205;-60
2023/10/26 03:11:06;;;;;;;0.32;0.30;;;;;;;;;;5039749;28;20233;-59
2023/10/26 03:13:33;;;;;;;0.25;0.25;;;;;;;;;;5039579;28;20221;-60
2023/10/26 03:16:00;;;;;;;0.40;0.30;;;;;;;;;;5039963;28;20205;-59
2023/10/26 03:18:28;;;;;;;0.28;0.28;;;;;;;;;;5039817;28;20213;-59
2023/10/26 03:20:55;;;;;;;0.30;0.30;;;;;;;;;;5039605;28;20214;-59
2023/10/26 03:23:24;;;;;;;0.32;0.30;;;;;;;;;;5039475;28;20210;-59
2023/10/26 03:25:52;;;;;;;0.30;0.30;;;;;;;;;;5039586;28;20237;-59
2023/10/26 03:28:19;;;;;;;0.55;0.40;;;;;;;;;;5039393;28;20601;-59
2023/10/26 03:30:47;;;;;;;0.30;0.30;;;;;;;;;;5039203;28;20601;-59
2023/10/26 03:33:14;;;;;;;0.30;0.30;;;;;;;;;;5039390;28;20574;-59
2023/10/26 03:35:42;;;;;;;0.35;0.30;;;;;;;;;;5039692;28;20233;-59
2023/10/26 03:38:10;;;;;;;0.40;0.40;;;;;;;;;;5039387;28;20217;-59
2023/10/26 03:40:38;;;;;;;0.40;0.40;;;;;;;;;;5038967;28;20205;-59
2023/10/26 03:43:06;;;;;;;0.40;0.40;;;;;;;;;;5039247;28;20206;-59
2023/10/26 03:45:33;;;;;;;0.40;0.40;;;;;;;;;;5038665;28;20217;-59
2023/10/26 03:48:01;;;;;;;0.30;0.30;;;;;;;;;;5039012;28;20205;-59
2023/10/26 03:50:28;;;;;;;0.40;0.40;;;;;;;;;;5037913;28;20252;-59
2023/10/26 03:52:55;;;;;;;0.30;0.30;;;;;;;;;;5038626;28;20205;-59
2023/10/26 03:55:23;;;;;;;0.50;0.50;;;;;;;;;;5039047;28;20202;-59
2023/10/26 03:57:52;;;;;;;0.30;0.28;;;;;;;;;;5038338;28;20206;-59
2023/10/26 04:00:19;;;;;;;0.30;0.30;;;;;;;;;;5038761;28;20205;-59
2023/10/26 04:02:46;;;;;;;0.20;0.20;;;;;;;;;;5038225;28;20205;-59
2023/10/26 04:05:15;;;;;;;0.40;0.40;;;;;;;;;;5038546;28;20226;-59
2023/10/26 04:07:43;;;;;;;0.30;0.30;;;;;;;;;;5037146;28;20205;-59
2023/10/26 04:10:11;;;;;;;0.52;0.30;;;;;;;;;;5038272;28;20296;-59
2023/10/26 04:12:38;;;;;;;0.43;0.40;;;;;;;;;;5038623;28;20216;-59
2023/10/26 04:15:08;;;;;;;0.40;0.40;;;;;;;;;;5038883;28;20205;-59
2023/10/26 04:17:35;;;;;;;0.30;0.30;;;;;;;;;;5037946;28;20205;-59
2023/10/26 04:20:02;;;;;;;0.47;0.38;;;;;;;;;;5038178;28;20245;-59
2023/10/26 04:22:31;;;;;;;0.30;0.30;;;;;;;;;;5037831;28;20309;-59
2023/10/26 04:24:58;;;;;;;0.93;0.40;;;;;;;;;;5037283;28;20291;-59
2023/10/26 04:27:27;;;;;;;0.20;0.20;;;;;;;;;;5037989;28;20212;-59
2023/10/26 04:29:54;;;;;;;0.35;0.32;;;;;;;;;;5037870;28;20235;-59
2023/10/26 04:32:23;;;;;;;0.40;0.40;;;;;;;;;;5037111;28;20213;-59
2023/10/26 04:34:50;;;;;;;0.40;0.40;;;;;;;;;;5037545;28;20193;-59
2023/10/26 04:37:18;;;;;;;0.60;0.50;;;;;;;;;;5037512;28;20212;-59
2023/10/26 04:39:46;;;;;;;0.77;0.30;;;;;;;;;;5037868;28;20201;-59
2023/10/26 04:42:13;;;;;;;0.40;0.40;;;;;;;;;;5036594;28;20214;-59
2023/10/26 04:44:41;;;;;;;0.88;0.40;;;;;;;;;;5036754;28;20225;-59
2023/10/26 04:47:08;;;;;;;0.40;0.40;;;;;;;;;;5037138;28;20206;-59
2023/10/26 04:49:37;;;;;;;0.30;0.30;;;;;;;;;;5035926;28;20213;-59
2023/10/26 04:52:05;;;;;;;0.30;0.30;;;;;;;;;;5036383;28;20254;-59
2023/10/26 04:54:32;;;;;;;0.30;0.30;;;;;;;;;;5036440;28;20208;-59
2023/10/26 04:57:00;;;;;;;0.47;0.32;;;;;;;;;;5035736;28;20205;-59
2023/10/26 04:59:27;;;;;;;0.85;0.40;;;;;;;;;;5036031;28;20209;-59
2023/10/26 05:01:54;;;;;;;0.40;0.40;;;;;;;;;;5035154;28;20214;-59
2023/10/26 05:04:22;;;;;;;0.40;0.40;;;;;;;;;;5034320;28;20483;-59
2023/10/26 05:06:51;;;;;;;1.35;0.50;;;;;;;;;;5034093;28;20220;-59
2023/10/26 05:09:18;;;;;;;0.35;0.35;;;;;;;;;;5035341;28;20213;-59
2023/10/26 05:11:46;;;;;;;0.50;0.30;;;;;;;;;;5034957;28;20571;-59
2023/10/26 05:14:13;;;;;;;0.50;0.50;;;;;;;;;;5034597;28;20198;-59
2023/10/26 05:16:41;;;;;;;0.30;0.30;;;;;;;;;;5035445;28;20201;-59
2023/10/26 05:19:10;;;;;;;0.30;0.30;;;;;;;;;;5033884;28;20198;-59
2023/10/26 05:21:38;;;;;;;0.40;0.40;;;;;;;;;;5035142;28;20501;-59
2023/10/26 05:24:08;;;;;;;0.30;0.30;;;;;;;;;;5034751;28;20599;-60
2023/10/26 05:26:35;;;;;;;0.47;0.47;;;;;;;;;;5035050;28;20226;-59
2023/10/26 05:29:04;;;;;;;0.95;0.50;;;;;;;;;;5035164;28;20251;-59
2023/10/26 05:31:31;;;;;;;0.75;0.40;;;;;;;;;;5035655;28;20213;-59
2023/10/26 05:33:59;;;;;;;0.40;0.32;;;;;;;;;;5035037;28;20212;-59
2023/10/26 05:36:26;;;;;;;0.50;0.50;;;;;;;;;;5034838;28;20201;-59
2023/10/26 05:38:54;;;;;;;0.40;0.40;;;;;;;;;;5035536;28;20601;-59
2023/10/26 05:41:23;;;;;;;0.50;0.50;;;;;;;;;;5035345;28;20271;-59
2023/10/26 05:43:50;;;;;;;0.60;0.60;;;;;;;;;;5033970;28;20574;-59
2023/10/26 05:46:18;;;;;;;0.70;0.45;;;;;;;;;;5035132;28;20302;-59
2023/10/26 05:48:46;;;;;;;0.50;0.50;;;;;;;;;;5034227;28;20205;-59
2023/10/26 05:51:13;;;;;;;0.30;0.30;;;;;;;;;;5033922;28;20241;-59
2023/10/26 05:53:41;;;;;;;0.50;0.50;;;;;;;;;;5034333;28;20306;-59
2023/10/26 05:56:08;;;;;;;0.40;0.40;;;;;;;;;;5034333;28;20201;-59
2023/10/26 05:58:37;;;;;;;1.05;0.40;;;;;;;;;;5034775;28;20213;-59
2023/10/26 06:01:05;;;;;;;1.13;0.55;;;;;;;;;;5034400;28;20216;-59
2023/10/26 06:03:33;;;;;;;1.05;0.50;;;;;;;;;;5033889;28;20205;-59
2023/10/26 06:06:00;;;;;;;0.77;0.60;;;;;;;;;;5033795;28;20222;-59
2023/10/26 06:08:28;;;;;;;0.40;0.40;;;;;;;;;;5034237;28;20225;-63
2023/10/26 06:10:55;;;;;;;1.20;0.68;;;;;;;;;;5034336;28;20210;-59
2023/10/26 06:13:22;;;;;;;1.85;0.50;;;;;;;;;;5034703;28;20231;-59
2023/10/26 06:15:51;;;;;;;3.47;0.43;;;;;;;;;;5034320;28;20304;-59
2023/10/26 06:18:19;;;;;;;1.35;0.50;;;;;;;;;;5034631;28;20297;-59
2023/10/26 06:20:57;;;;;;;0.70;0.40;;;;;;;;;;5034561;28;20241;-59
2023/10/26 06:23:24;;;;;;;0.60;0.60;;;;;;;;;;5034798;28;20300;-59
2023/10/26 06:25:58;;;;;;;1.30;0.43;;;;;;;;;;5034846;28;20625;-59
2023/10/26 06:28:25;;;;;;;1.25;0.50;;;;;;;;;;5034910;28;20206;-59
2023/10/26 06:30:54;;;;;;;0.75;0.60;;;;;;;;;;5036851;28;20206;-59
2023/10/26 06:33:23;;;;;;;0.43;0.43;;;;;;;;;;5038370;28;20220;-59
2023/10/26 06:35:51;;;;;;;2.72;0.63;;;;;;;;;;5038514;28;20570;-59
2023/10/26 06:38:18;;;;;;;0.90;0.50;;;;;;;;;;5038696;28;20312;-59
2023/10/26 06:40:47;;;;;;;0.55;0.40;;;;;;;;;;5038675;28;20208;-59
2023/10/26 06:43:14;;;;;;;0.70;0.50;;;;;;;;;;5037492;28;20205;-59
2023/10/26 06:45:42;;;;;;;0.65;0.55;;;;;;;;;;5038409;28;20228;-59
2023/10/26 06:48:11;;;;;;;0.40;0.40;;;;;;;;;;5038945;28;20216;-59
2023/10/26 06:50:39;;;;;;;0.63;0.47;;;;;;;;;;5038349;28;20802;-59
2023/10/26 06:53:06;;;;;;;0.68;0.40;;;;;;;;;;5038255;28;20206;-59
2023/10/26 06:55:34;;;;;;;0.50;0.40;;;;;;;;;;5038658;28;20229;-59
2023/10/26 06:58:01;;;;;;;0.47;0.47;;;;;;;;;;5038680;28;20535;-59
2023/10/26 07:00:29;;;;;;;0.88;0.50;;;;;;;;;;5038266;28;20645;-59
2023/10/26 07:02:56;;;;;;;0.73;0.70;;;;;;;;;;5037178;28;20201;-59
2023/10/26 07:05:25;;;;;;;0.60;0.60;;;;;;;;;;5037639;28;20232;-59
2023/10/26 07:07:52;;;;;;;0.52;0.52;;;;;;;;;;5038307;28;20306;-59
2023/10/26 07:10:20;;;;;;;0.57;0.57;;;;;;;;;;5037826;28;20216;-59
2023/10/26 07:12:48;;;;;;;0.57;0.57;;;;;;;;;;5037739;28;20283;-59
2023/10/26 07:15:16;;;;;;;0.80;0.50;;;;;;;;;;5038071;28;20682;-59
2023/10/26 07:17:43;;;;;;;1.38;0.65;;;;;;;;;;5038386;28;20215;-59
2023/10/26 07:20:12;;;;;;;1.45;0.80;;;;;;;;;;5037375;28;20206;-59
2023/10/26 07:22:42;;;;;;;0.65;0.55;;;;;;;;;;5037741;28;20219;-59
2023/10/26 07:25:10;;;;;;;0.50;0.50;;;;;;;;;;5036166;28;20360;-59
2023/10/26 07:27:38;;;;;;;0.70;0.70;;;;;;;;;;5036481;28;20237;-59
2023/10/26 07:30:07;;;;;;;1.42;0.50;;;;;;;;;;5037569;28;20581;-59
2023/10/26 07:32:34;;;;;;;1.27;0.50;;;;;;;;;;5037444;28;20214;-59
2023/10/26 07:35:02;;;;;;;0.63;0.60;;;;;;;;;;5036978;28;20256;-59
2023/10/26 07:37:30;;;;;;;0.75;0.50;;;;;;;;;;5037151;28;20300;-59
2023/10/26 07:39:58;;;;;;;0.95;0.57;;;;;;;;;;5036512;28;20279;-59
2023/10/26 07:42:26;;;;;;;1.13;0.80;;;;;;;;;;5036318;28;20324;-59
2023/10/26 07:44:53;;;;;;;0.70;0.60;;;;;;;;;;5036637;28;20303;-59
2023/10/26 07:47:21;;;;;;;1.00;0.60;;;;;;;;;;5036380;28;20202;-59
2023/10/26 07:49:49;;;;;;;0.70;0.40;;;;;;;;;;5036921;28;20267;-59
2023/10/26 07:52:16;;;;;;;0.85;0.70;;;;;;;;;;5036323;28;20234;-59
2023/10/26 07:54:44;;;;;;;0.55;0.55;;;;;;;;;;5036645;28;20212;-59
2023/10/26 07:57:13;;;;;;;1.25;0.60;;;;;;;;;;5036448;28;20689;-59
2023/10/26 07:59:41;;;;;;;0.60;0.60;;;;;;;;;;5037192;28;20216;-59
2023/10/26 08:02:08;;;;;;;0.60;0.60;;;;;;;;;;5036882;28;20470;-59
2023/10/26 08:04:36;;;;;;;0.93;0.63;;;;;;;;;;5037193;28;20205;-59
2023/10/26 08:07:03;;;;;;;2.25;0.77;;;;;;;;;;5037012;28;20226;-59
2023/10/26 08:09:32;;;;;;;0.70;0.70;;;;;;;;;;5036470;28;20616;-59
2023/10/26 08:11:59;;;;;;;1.02;0.80;;;;;;;;;;5036327;28;20272;-59
2023/10/26 08:14:29;;;;;;;0.50;0.50;;;;;;;;;;5036041;28;20205;-59
2023/10/26 08:16:57;;;;;;;0.85;0.50;;;;;;;;;;5036017;28;20669;-59
2023/10/26 08:19:25;;;;;;;0.70;0.70;;;;;;;;;;5036974;28;20493;-59
2023/10/26 08:21:53;;;;;;;0.60;0.60;;;;;;;;;;5036146;28;20205;-59
2023/10/26 08:24:21;;;;;;;0.60;0.60;;;;;;;;;;5036666;28;20206;-59
2023/10/26 08:26:49;;;;;;;0.70;0.70;;;;;;;;;;5035963;28;20225;-59
2023/10/26 08:29:38;;;;;;;1.15;0.90;;;;;;;;;;5036085;28;20205;-59
2023/10/26 08:32:08;;;;;;;0.70;0.70;;;;;;;;;;5036766;28;20216;-59
2023/10/26 08:34:35;;;;;;;0.98;0.73;;;;;;;;;;5035978;28;20213;-59
2023/10/26 08:37:02;;;;;;;1.70;0.90;;;;;;;;;;5035726;28;20228;-59
2023/10/26 08:39:30;;;;;;;0.80;0.80;;;;;;;;;;5036374;28;20206;-59
2023/10/26 08:41:59;;;;;;;0.93;0.93;;;;;;;;;;5036132;28;20206;-59
2023/10/26 08:44:27;;;;;;;0.80;0.60;;;;;;;;;;5036655;28;20205;-59
2023/10/26 08:46:59;;;;;;;0.60;0.60;;;;;;;;;;5036079;28;20831;-59
2023/10/26 08:49:28;;;;;;;0.88;0.73;;;;;;;;;;5035633;28;20257;-59
2023/10/26 08:51:56;;;;;;;0.70;0.70;;;;;;;;;;5036192;28;20630;-59
2023/10/26 08:54:23;;;;;;;0.65;0.65;;;;;;;;;;5035449;28;20673;-59
2023/10/26 08:56:50;;;;;;;1.20;0.90;;;;;;;;;;5035245;28;20198;-59
2023/10/26 08:59:18;;;;;;;1.23;0.93;;;;;;;;;;5031764;28;20202;-59
2023/10/26 09:01:47;;;;;;;0.70;0.70;;;;;;;;;;5035086;28;20271;-59
2023/10/26 09:04:15;;;;;;;0.90;0.90;;;;;;;;;;5036217;28;20282;-59
2023/10/26 09:06:47;;;;;;;0.82;0.77;;;;;;;;;;5035096;28;20237;-59
2023/10/26 09:09:15;;;;;;;0.52;0.52;;;;;;;;;;5035342;28;20784;-59
2023/10/26 09:11:42;;;;;;;1.10;1.00;;;;;;;;;;5035287;28;20271;-59
2023/10/26 09:14:14;;;;;;;0.88;0.75;;;;;;;;;;5034606;28;20213;-59
2023/10/26 09:16:43;;;;;;;1.48;1.00;;;;;;;;;;5034639;28;20244;-59
2023/10/26 09:19:12;;;;;;;0.73;0.73;;;;;;;;;;5034664;28;20213;-59
2023/10/26 09:21:50;;;;;;;0.60;0.60;;;;;;;;;;5035519;28;20523;-59
2023/10/26 09:24:24;;;;;;;0.80;0.80;;;;;;;;;;5034829;28;20197;-59
2023/10/26 09:26:52;;;;;;;0.90;0.90;;;;;;;;;;5035075;28;20225;-59
2023/10/26 09:29:20;;;;;;;1.02;0.80;;;;;;;;;;5035238;28;20312;-59
2023/10/26 09:31:55;;;;;;;0.75;0.70;;;;;;;;;;5034364;28;20578;-59
2023/10/26 09:34:25;;;;;;;0.90;0.90;;;;;;;;;;5034068;28;20291;-59
2023/10/26 09:37:00;;;;;;;0.70;0.70;;;;;;;;;;5035000;28;20213;-59
2023/10/26 09:39:30;;;;;;;0.80;0.80;;;;;;;;;;5034673;28;20205;-59
2023/10/26 09:41:59;;;;;;;0.80;0.70;;;;;;;;;;5034040;28;20202;-59
2023/10/26 09:44:26;;;;;;;0.70;0.70;;;;;;;;;;5034461;28;20206;-59
2023/10/26 09:46:54;;;;;;;0.75;0.70;;;;;;;;;;5033824;28;20495;-59
2023/10/26 09:49:21;;;;;;;0.68;0.68;;;;;;;;;;5034678;28;20276;-59
2023/10/26 09:51:49;;;;;;;0.70;0.70;;;;;;;;;;5034003;28;20316;-59
2023/10/26 09:54:19;;;;;;;0.70;0.70;;;;;;;;;;5034163;28;20600;-59
2023/10/26 09:56:48;;;;;;;0.73;0.73;;;;;;;;;;5034238;28;20233;-59
2023/10/26 09:59:16;;;;;;;1.00;1.00;;;;;;;;;;5034187;28;20206;-59
2023/10/26 10:01:45;;;;;;;1.00;0.90;;;;;;;;;;5033721;28;20210;-59
2023/10/26 10:04:13;;;;;;;1.90;0.90;;;;;;;;;;5033683;28;20258;-59
2023/10/26 10:06:51;;;;;;;1.00;0.90;;;;;;;;;;5037994;28;20276;-59
2023/10/26 10:09:21;;;;;;;1.60;0.73;;;;;;;;;;5038276;28;20211;-59
2023/10/26 10:12:15;;;;;;;0.90;0.90;;;;;;;;;;5037842;28;20249;-59
2023/10/26 10:15:00;;;;;;;0.95;0.88;;;;;;;;;;5038062;28;20323;-59
2023/10/26 10:17:46;;;;;;;0.75;0.70;;;;;;;;;;5037072;28;20293;-59
2023/10/26 10:20:30;;;;;;;0.63;0.63;;;;;;;;;;5037565;28;20219;-59
2023/10/26 10:22:59;;;;;;;0.70;0.70;;;;;;;;;;5036778;28;20206;-59
2023/10/26 10:25:48;;;;;;;0.80;0.70;;;;;;;;;;5037691;28;20340;-59
2023/10/26 10:28:17;;;;;;;0.65;0.65;;;;;;;;;;5031129;28;20233;-59
2023/10/26 10:30:55;;;;;;;0.70;0.60;;;;;;;;;;5036890;28;20782;-59
2023/10/26 10:33:26;;;;;;;0.63;0.63;;;;;;;;;;5037024;28;20202;-59
2023/10/26 10:36:01;;;;;;;0.68;0.68;;;;;;;;;;5037659;28;20206;-59
2023/10/26 10:38:29;;;;;;;0.70;0.70;;;;;;;;;;5036270;28;20205;-59
2023/10/26 10:41:12;;;;;;;0.70;0.70;;;;;;;;;;5037598;28;20304;-59
2023/10/26 10:43:44;;;;;;;0.82;0.60;;;;;;;;;;5037040;28;20213;-59
2023/10/26 10:46:13;;;;;;;0.98;0.70;;;;;;;;;;5037492;28;20263;-59
2023/10/26 10:48:57;;;;;;;0.98;0.80;;;;;;;;;;5036949;28;20524;-59
2023/10/26 10:51:33;;;;;;;1.08;0.60;;;;;;;;;;5037742;28;20301;-59
2023/10/26 10:54:02;;;;;;;0.70;0.70;;;;;;;;;;5035918;28;20201;-59
2023/10/26 10:56:30;;;;;;;0.77;0.70;;;;;;;;;;5037735;28;20593;-59
2023/10/26 10:58:59;;;;;;;2.05;0.77;;;;;;;;;;5037601;28;20213;-59
2023/10/26 11:01:29;;;;;;;0.68;0.68;;;;;;;;;;5037728;28;20202;-59
2023/10/26 11:04:06;;;;;;;0.50;0.50;;;;;;;;;;5037412;28;20208;-59
2023/10/26 11:06:34;;;;;;;1.45;0.70;;;;;;;;;;5037104;28;20225;-59
2023/10/26 11:09:02;;;;;;;0.80;0.70;;;;;;;;;;5037707;28;20714;-59
2023/10/26 11:11:31;;;;;;;0.80;0.80;;;;;;;;;;5035789;28;20229;-59
2023/10/26 11:14:11;;;;;;;0.82;0.82;;;;;;;;;;5034742;28;20817;-59
2023/10/26 11:16:40;;;;;;;1.02;0.70;;;;;;;;;;5036706;28;20245;-59
2023/10/26 11:19:07;;;;;;;0.82;0.82;;;;;;;;;;5036041;28;20206;-59
2023/10/26 11:21:35;;;;;;;0.65;0.65;;;;;;;;;;5035982;28;20209;-59
2023/10/26 11:24:04;;;;;;;0.75;0.65;;;;;;;;;;5036028;28;20224;-59
2023/10/26 11:26:32;;;;;;;0.70;0.70;;;;;;;;;;5036433;28;20226;-59
2023/10/26 11:29:04;;;;;;;0.63;0.63;;;;;;;;;;5035896;28;20206;-59
2023/10/26 11:31:41;;;;;;;1.42;0.90;;;;;;;;;;5036175;28;20613;-59
2023/10/26 11:34:11;;;;;;;0.90;0.90;;;;;;;;;;5036683;28;20205;-59
2023/10/26 11:36:40;;;;;;;0.80;0.80;;;;;;;;;;5036941;28;20244;-58
2023/10/26 11:39:10;;;;;;;1.20;0.70;;;;;;;;;;5036210;28;20268;-58
2023/10/26 11:41:38;;;;;;;1.17;0.70;;;;;;;;;;5036706;28;20288;-58
2023/10/26 11:44:25;;;;;;;1.65;0.70;;;;;;;;;;5035649;28;20206;-57
2023/10/26 11:47:02;;;;;;;1.75;0.70;;;;;;;;;;5035671;28;20506;-57
2023/10/26 11:49:47;;;;;;;1.05;0.70;;;;;;;;;;5036319;28;20209;-57
2023/10/26 11:52:16;;;;;;;2.90;1.10;;;;;;;;;;4996959;28;20215;-57
2023/10/26 11:54:55;;;;;;;1.52;1.00;;;;;;;;;;4996138;28;20594;-57
2023/10/26 11:57:24;;;;;;;1.17;0.80;;;;;;;;;;4997069;28;20202;-57
2023/10/26 11:59:54;;;;;;;3.17;0.80;;;;;;;;;;4995576;28;20560;-57
2023/10/26 12:02:28;;;;;;;2.45;0.77;;;;;;;;;;4996463;28;20298;-57
2023/10/26 12:04:56;;;;;;;1.77;0.80;;;;;;;;;;4996606;28;20490;-58
2023/10/26 12:07:25;;;;;;;1.17;0.70;;;;;;;;;;4997018;28;20619;-58
2023/10/26 12:09:54;;;;;;;1.40;0.77;;;;;;;;;;4996397;28;20207;-58
2023/10/26 12:12:25;;;;;;;0.80;0.60;;;;;;;;;;4995923;28;20209;-58
2023/10/26 12:14:53;;;;;;;1.40;0.80;;;;;;;;;;4995892;28;20261;-58
2023/10/26 12:17:21;;;;;;;1.15;0.80;;;;;;;;;;4995974;28;20195;-58
2023/10/26 12:19:50;;;;;;;2.85;0.88;;;;;;;;;;4996198;28;20629;-57
2023/10/26 12:22:20;;;;;;;0.60;0.60;;;;;;;;;;4996028;28;20298;-58
2023/10/26 12:24:48;;;;;;;0.98;0.70;;;;;;;;;;4996344;28;20815;-57
2023/10/26 12:27:18;;;;;;;0.73;0.73;;;;;;;;;;4996673;28;20234;-58
2023/10/26 12:29:46;;;;;;;0.60;0.60;;;;;;;;;;4994719;28;20207;-58
2023/10/26 12:32:14;;;;;;;1.05;0.70;;;;;;;;;;4996352;28;20723;-58
2023/10/26 12:34:43;;;;;;;1.00;0.90;;;;;;;;;;4996058;28;20221;-58
2023/10/26 12:37:12;;;;;;;0.68;0.68;;;;;;;;;;4996333;28;20246;-57
2023/10/26 12:39:41;;;;;;;0.57;0.57;;;;;;;;;;4995547;28;20649;-57
2023/10/26 12:42:09;;;;;;;0.50;0.50;;;;;;;;;;4995520;28;20209;-57
2023/10/26 12:44:38;;;;;;;0.80;0.60;;;;;;;;;;4995320;28;20795;-57
2023/10/26 12:47:07;;;;;;;0.70;0.70;;;;;;;;;;4996440;28;20637;-57
2023/10/26 12:49:35;;;;;;;1.30;0.60;;;;;;;;;;4996422;28;20211;-57
2023/10/26 12:52:04;;;;;;;0.63;0.63;;;;;;;;;;5035623;28;20512;-57
2023/10/26 12:54:34;;;;;;;0.82;0.70;;;;;;;;;;5034956;28;20205;-57
2023/10/26 12:57:02;;;;;;;0.60;0.60;;;;;;;;;;5035281;28;20795;-57
2023/10/26 12:59:31;;;;;;;0.85;0.60;;;;;;;;;;5034764;28;20526;-57
2023/10/26 13:01:59;;;;;;;0.85;0.60;;;;;;;;;;5034727;28;20206;-57
2023/10/26 13:04:27;;;;;;;1.20;0.50;;;;;;;;;;5035621;28;20252;-57
2023/10/26 13:06:55;;;;;;;0.63;0.63;;;;;;;;;;5035608;28;20229;-57
2023/10/26 13:09:23;;;;;;;0.60;0.52;;;;;;;;;;5034687;28;20224;-57
2023/10/26 13:11:53;;;;;;;0.80;0.70;;;;;;;;;;5034816;28;20209;-58
2023/10/26 13:14:22;;;;;;;0.50;0.50;;;;;;;;;;5035082;28;20659;-58
2023/10/26 13:16:50;;;;;;;0.77;0.50;;;;;;;;;;5034331;28;20198;-58
2023/10/26 13:19:20;;;;;;;0.50;0.50;;;;;;;;;;5034180;28;20209;-57
2023/10/26 13:21:49;;;;;;;0.50;0.50;;;;;;;;;;5035224;28;20271;-57
2023/10/26 13:24:16;;;;;;;0.70;0.45;;;;;;;;;;5034959;28;20674;-57
2023/10/26 13:26:45;;;;;;;0.50;0.50;;;;;;;;;;5034752;28;20296;-57
2023/10/26 13:29:14;;;;;;;0.50;0.50;;;;;;;;;;5034893;28;20202;-57
2023/10/26 13:31:42;;;;;;;0.73;0.47;;;;;;;;;;5034015;28;20197;-57
2023/10/26 13:34:26;;;;;;;0.50;0.50;;;;;;;;;;5034033;28;20206;-57
2023/10/26 13:36:54;;;;;;;0.50;0.50;;;;;;;;;;5032452;28;20202;-57
2023/10/26 13:39:24;;;;;;;0.85;0.60;;;;;;;;;;5034077;28;20205;-57
2023/10/26 13:41:52;;;;;;;0.50;0.50;;;;;;;;;;5033563;28;20304;-58
2023/10/26 13:44:23;;;;;;;0.80;0.63;;;;;;;;;;5033582;28;20296;-58
2023/10/26 13:46:49;;;;;;;0.40;0.40;;;;;;;;;;5034823;28;20288;-58
2023/10/26 13:49:18;;;;;;;0.50;0.50;;;;;;;;;;5034634;28;20266;-58
2023/10/26 13:51:45;;;;;;;0.50;0.50;;;;;;;;;;5033619;28;20517;-58
2023/10/26 13:54:13;;;;;;;0.70;0.60;;;;;;;;;;5033379;28;20213;-58
2023/10/26 13:56:41;;;;;;;0.88;0.60;;;;;;;;;;5033975;28;20205;-58
2023/10/26 13:59:08;;;;;;;0.60;0.60;;;;;;;;;;5033025;28;20229;-58
2023/10/26 14:01:37;;;;;;;0.40;0.40;;;;;;;;;;5033562;28;20791;-58
2023/10/26 14:04:05;;;;;;;0.77;0.60;;;;;;;;;;5033023;28;20663;-58
2023/10/26 14:06:33;;;;;;;1.00;0.60;;;;;;;;;;5033492;28;20202;-58
2023/10/26 14:09:01;;;;;;;0.80;0.77;;;;;;;;;;5032799;28;20524;-58
2023/10/26 14:11:29;;;;;;;0.70;0.50;;;;;;;;;;5033271;28;20265;-58
2023/10/26 14:13:57;;;;;;;0.60;0.60;;;;;;;;;;5033722;28;20212;-58
2023/10/26 14:16:25;;;;;;;0.75;0.60;;;;;;;;;;5032602;28;20201;-58
2023/10/26 14:18:54;;;;;;;0.73;0.50;;;;;;;;;;5032478;28;20213;-58
2023/10/26 14:21:22;;;;;;;0.75;0.70;;;;;;;;;;5033083;28;20273;-58
2023/10/26 14:23:49;;;;;;;0.60;0.60;;;;;;;;;;5032607;28;20237;-58
2023/10/26 14:26:17;;;;;;;0.60;0.60;;;;;;;;;;5033635;28;20647;-58
2023/10/26 14:28:46;;;;;;;0.77;0.60;;;;;;;;;;5033398;28;20319;-58
2023/10/26 14:31:15;;;;;;;1.08;0.45;;;;;;;;;;5032300;28;20213;-58
2023/10/26 14:33:42;;;;;;;0.60;0.60;;;;;;;;;;5033292;28;20206;-58
2023/10/26 14:36:11;;;;;;;0.65;0.60;;;;;;;;;;5033857;28;20241;-58
2023/10/26 14:38:39;;;;;;;0.60;0.60;;;;;;;;;;5033545;28;20263;-58
2023/10/26 14:41:06;;;;;;;0.65;0.60;;;;;;;;;;5032586;28;20202;-58
2023/10/26 14:43:34;;;;;;;0.80;0.80;;;;;;;;;;5032673;28;20797;-58
2023/10/26 14:46:02;;;;;;;0.80;0.70;;;;;;;;;;5032514;28;20209;-57
2023/10/26 14:48:30;;;;;;;0.65;0.60;;;;;;;;;;5032108;28;20621;-57
2023/10/26 14:51:00;;;;;;;0.75;0.65;;;;;;;;;;5033112;28;20264;-57
2023/10/26 14:53:32;;;;;;;0.68;0.68;;;;;;;;;;5036030;28;20206;-57